createdAt,value
2023-02-24T00:02:15.025Z,6.10
2023-02-24T00:04:42.662Z,6.00
2023-02-24T00:07:12.662Z,6.00
2023-02-24T00:09:40.482Z,6.00
2023-02-24T00:12:12.954Z,5.90
2023-02-24T00:14:44.468Z,5.90
2023-02-24T00:17:15.582Z,5.90
2023-02-24T00:19:43.091Z,5.90
2023-02-24T00:22:10.710Z,5.80
2023-02-24T00:24:38.140Z,5.80
2023-02-24T00:27:13.031Z,5.80
2023-02-24T00:29:41.969Z,5.70
2023-02-24T00:32:12.862Z,5.60
2023-02-24T00:34:42.105Z,5.50
2023-02-24T00:37:09.545Z,5.50
2023-02-24T00:39:41.960Z,5.40
2023-02-24T00:42:11.635Z,5.30
2023-02-24T00:44:46.218Z,5.20
2023-02-24T00:47:17.011Z,5.20
2023-02-24T00:49:44.918Z,5.10
2023-02-24T00:52:15.515Z,5.10
2023-02-24T00:54:46.011Z,5.10
2023-02-24T00:57:14.300Z,5.10
2023-02-24T00:59:47.350Z,5.10
2023-02-24T01:02:15.363Z,5.10
2023-02-24T01:04:46.530Z,5.10
2023-02-24T01:07:16.516Z,5.10
2023-02-24T01:09:46.588Z,5.10
2023-02-24T01:12:33.198Z,5.20
2023-02-24T01:15:05.083Z,5.20
2023-02-24T01:17:36.580Z,5.20
2023-02-24T01:20:16.082Z,5.10
2023-02-24T01:22:45.418Z,5.10
2023-02-24T01:25:13.117Z,5.10
2023-02-24T01:27:42.220Z,5.10
2023-02-24T01:30:15.883Z,4.90
2023-02-24T01:32:45.063Z,4.90
2023-02-24T01:35:12.445Z,4.80
2023-02-24T01:37:41.619Z,5.00
2023-02-24T01:40:21.596Z,5.00
2023-02-24T01:42:49.965Z,4.90
2023-02-24T01:45:21.922Z,4.80
2023-02-24T01:47:50.322Z,4.80
2023-02-24T01:50:21.873Z,4.90
2023-02-24T01:52:52.447Z,5.00
2023-02-24T01:55:24.530Z,5.00
2023-02-24T01:57:53.950Z,5.00
2023-02-24T02:00:45.148Z,4.80
2023-02-24T02:03:24.522Z,4.80
2023-02-24T02:05:54.308Z,4.70
2023-02-24T02:08:23.719Z,4.70
2023-02-24T02:10:58.205Z,4.60
2023-02-24T02:13:26.972Z,4.60
2023-02-24T02:15:57.622Z,4.60
2023-02-24T02:18:36.510Z,4.50
2023-02-24T02:21:29.354Z,4.50
2023-02-24T02:24:22.218Z,4.50
2023-02-24T02:27:06.788Z,4.30
2023-02-24T02:29:46.619Z,4.30
2023-02-24T02:32:52.995Z,4.30
2023-02-24T02:35:38.000Z,4.30
2023-02-24T02:38:26.226Z,4.30
2023-02-24T02:41:07.554Z,4.30
2023-02-24T02:43:55.150Z,4.30
2023-02-24T02:46:46.284Z,4.30
2023-02-24T02:49:21.871Z,4.30
2023-02-24T02:51:53.885Z,4.30
2023-02-24T02:54:45.490Z,4.30
2023-02-24T02:57:30.223Z,4.30
2023-02-24T03:00:10.301Z,4.30
2023-02-24T03:02:42.913Z,4.30
2023-02-24T03:05:11.776Z,4.20
2023-02-24T03:07:45.287Z,4.20
2023-02-24T03:10:21.061Z,4.10
2023-02-24T03:12:52.500Z,4.20
2023-02-24T03:15:22.149Z,4.30
2023-02-24T03:18:01.514Z,4.20
2023-02-24T03:20:36.060Z,4.30
2023-02-24T03:23:09.163Z,4.20
2023-02-24T03:25:50.371Z,4.20
2023-02-24T03:28:42.893Z,4.30
2023-02-24T03:31:23.373Z,4.30
2023-02-24T03:34:05.520Z,4.30
2023-02-24T03:36:33.672Z,4.20
2023-02-24T03:39:02.616Z,4.20
2023-02-24T03:41:56.276Z,4.10
2023-02-24T03:44:25.869Z,4.10
2023-02-24T03:46:55.757Z,4.00
2023-02-24T03:49:25.348Z,4.10
2023-02-24T03:52:12.531Z,4.10
2023-02-24T03:55:03.096Z,4.10
2023-02-24T03:57:59.792Z,4.10
2023-02-24T04:00:58.426Z,4.00
2023-02-24T04:04:00.338Z,4.00
2023-02-24T04:06:57.894Z,4.00
2023-02-24T04:09:40.349Z,4.00
2023-02-24T04:12:19.865Z,4.10
2023-02-24T04:15:10.264Z,4.10
2023-02-24T04:17:54.663Z,4.10
2023-02-24T04:20:29.420Z,4.00
2023-02-24T04:23:22.324Z,4.00
2023-02-24T04:25:52.317Z,4.00
2023-02-24T04:28:26.217Z,4.10
2023-02-24T04:30:57.704Z,4.20
2023-02-24T04:33:25.855Z,4.10
2023-02-24T04:35:54.270Z,4.00
2023-02-24T04:38:23.730Z,4.00
2023-02-24T04:40:51.480Z,4.00
2023-02-24T04:43:19.257Z,4.00
2023-02-24T04:45:46.786Z,4.00
2023-02-24T04:48:15.468Z,4.00
2023-02-24T04:50:44.997Z,4.00
2023-02-24T04:53:15.313Z,4.10
2023-02-24T04:55:50.070Z,4.00
2023-02-24T04:58:27.867Z,4.00
2023-02-24T05:00:56.202Z,4.00
2023-02-24T05:03:28.160Z,3.90
2023-02-24T05:06:01.853Z,3.90
2023-02-24T05:08:31.551Z,3.90
2023-02-24T05:11:03.845Z,3.80
2023-02-24T05:13:32.410Z,3.90
2023-02-24T05:16:08.235Z,3.80
2023-02-24T05:18:38.550Z,3.80
2023-02-24T05:21:27.525Z,3.80
2023-02-24T05:23:55.917Z,3.80
2023-02-24T05:26:25.998Z,3.80
2023-02-24T05:28:56.331Z,3.70
2023-02-24T05:31:28.000Z,3.60
2023-02-24T05:34:03.809Z,3.70
2023-02-24T05:36:36.252Z,3.80
2023-02-24T05:39:07.604Z,3.80
2023-02-24T05:41:38.593Z,3.90
2023-02-24T05:44:10.806Z,4.00
2023-02-24T05:46:44.514Z,4.00
2023-02-24T05:49:23.202Z,4.00
2023-02-24T05:51:55.440Z,3.90
2023-02-24T05:54:31.321Z,4.00
2023-02-24T05:57:04.967Z,4.00
2023-02-24T05:59:33.531Z,4.00
2023-02-24T06:02:07.639Z,4.00
2023-02-24T06:04:40.091Z,3.90
2023-02-24T06:07:18.850Z,4.00
2023-02-24T06:09:49.973Z,3.90
2023-02-24T06:12:18.349Z,3.90
2023-02-24T06:14:45.632Z,3.90
2023-02-24T06:17:15.251Z,3.90
2023-02-24T06:19:43.615Z,3.80
2023-02-24T06:22:15.525Z,3.90
2023-02-24T06:25:11.935Z,3.80
2023-02-24T06:27:39.162Z,3.90
2023-02-24T06:30:10.295Z,3.80
2023-02-24T06:32:38.175Z,3.80
2023-02-24T06:35:15.136Z,3.80
2023-02-24T06:37:44.012Z,3.80
2023-02-24T06:40:17.778Z,3.80
2023-02-24T06:42:49.369Z,3.80
2023-02-24T06:46:19.900Z,3.70
2023-02-24T06:49:00.213Z,3.70
2023-02-24T06:51:30.536Z,3.70
2023-02-24T06:54:19.121Z,3.70
2023-02-24T06:56:47.752Z,3.80
2023-02-24T07:00:13.504Z,3.80
2023-02-24T07:03:22.496Z,3.90
2023-02-24T07:06:20.511Z,3.80
2023-02-24T07:08:53.463Z,3.80
2023-02-24T07:11:27.692Z,3.80
2023-02-24T07:14:01.051Z,3.90
2023-02-24T07:16:29.045Z,3.80
2023-02-24T07:19:29.677Z,3.80
2023-02-24T07:22:01.914Z,3.80
2023-02-24T07:25:10.374Z,3.90
2023-02-24T07:27:40.582Z,3.90
2023-02-24T07:30:20.042Z,3.90
2023-02-24T07:32:52.115Z,4.00
2023-02-24T07:35:35.361Z,4.00
2023-02-24T07:38:26.414Z,4.00
2023-02-24T07:45:15.380Z,4.00
2023-02-24T07:47:42.830Z,4.00
2023-02-24T07:50:41.962Z,4.00
2023-02-24T07:53:10.453Z,4.00
2023-02-24T07:55:37.733Z,3.90
2023-02-24T07:58:05.909Z,4.00
2023-02-24T08:00:50.003Z,4.00
2023-02-24T08:03:17.264Z,4.10
2023-02-24T08:05:45.134Z,4.00
2023-02-24T08:08:21.574Z,4.00
2023-02-24T08:14:32.670Z,4.00
2023-02-24T08:17:37.417Z,4.10
2023-02-24T08:20:25.233Z,4.10
2023-02-24T08:23:14.913Z,4.10
2023-02-24T08:26:16.530Z,4.10
2023-02-24T08:32:43.481Z,4.00
2023-02-24T08:35:17.065Z,4.00
2023-02-24T08:37:48.370Z,4.10
2023-02-24T08:40:38.719Z,4.00
2023-02-24T08:43:19.334Z,4.00
2023-02-24T08:46:03.517Z,4.00
2023-02-24T08:48:37.869Z,4.00
2023-02-24T08:51:24.451Z,4.10
2023-02-24T08:53:54.221Z,4.10
2023-02-24T08:56:29.470Z,4.10
2023-02-24T08:58:58.307Z,4.20
2023-02-24T09:01:34.901Z,4.20
2023-02-24T09:04:11.042Z,4.20
2023-02-24T09:06:43.971Z,4.20
2023-02-24T09:09:23.155Z,4.50
2023-02-24T09:11:59.772Z,4.50
2023-02-24T09:14:36.268Z,4.40
2023-02-24T09:17:06.574Z,4.50
2023-02-24T09:19:51.684Z,4.50
2023-02-24T09:22:57.143Z,4.60
2023-02-24T09:25:40.297Z,4.50
2023-02-24T09:28:19.577Z,4.50
2023-02-24T09:30:56.366Z,4.40
2023-02-24T09:33:25.286Z,4.40
2023-02-24T09:36:10.306Z,4.40
2023-02-24T09:39:01.662Z,4.40
2023-02-24T09:41:54.418Z,4.40
2023-02-24T09:44:36.223Z,4.30
2023-02-24T09:47:40.563Z,4.30
2023-02-24T09:50:46.787Z,4.30
2023-02-24T09:53:17.010Z,4.20
2023-02-24T09:56:03.901Z,4.20
2023-02-24T09:58:59.022Z,4.20
2023-02-24T10:01:33.335Z,4.20
2023-02-24T10:04:40.563Z,4.30
2023-02-24T10:07:14.154Z,4.30
2023-02-24T10:09:51.963Z,4.20
2023-02-24T10:12:24.057Z,4.20
2023-02-24T10:15:18.647Z,4.20
2023-02-24T10:17:57.018Z,4.20
2023-02-24T10:20:45.614Z,4.20
2023-02-24T10:23:32.785Z,4.20
2023-02-24T10:26:22.001Z,4.30
2023-02-24T10:28:58.777Z,4.30
2023-02-24T10:31:47.828Z,4.40
2023-02-24T10:34:26.288Z,4.30
2023-02-24T10:36:57.431Z,4.30
2023-02-24T10:39:26.123Z,4.40
2023-02-24T10:41:59.354Z,4.30
2023-02-24T10:44:38.934Z,4.30
2023-02-24T10:47:14.172Z,4.20
2023-02-24T10:49:59.024Z,4.10
2023-02-24T10:52:57.739Z,4.10
2023-02-24T10:55:53.561Z,4.10
2023-02-24T10:58:28.390Z,4.10
2023-02-24T11:01:11.883Z,4.00
2023-02-24T11:03:46.387Z,4.00
2023-02-24T11:06:52.264Z,4.00
2023-02-24T11:09:28.534Z,3.90
2023-02-24T11:12:31.573Z,3.90
2023-02-24T11:15:22.902Z,3.90
2023-02-24T11:17:56.981Z,3.80
2023-02-24T11:20:48.429Z,3.80
2023-02-24T11:23:27.247Z,3.70
2023-02-24T11:26:17.708Z,3.60
2023-02-24T11:29:11.972Z,3.50
2023-02-24T11:32:16.898Z,3.50
2023-02-24T11:34:51.020Z,3.50
2023-02-24T11:37:37.899Z,3.40
2023-02-24T11:40:19.778Z,3.40
2023-02-24T11:43:07.493Z,3.40
2023-02-24T11:45:46.910Z,3.50
2023-02-24T11:48:26.451Z,3.40
2023-02-24T11:51:04.883Z,3.30
2023-02-24T11:53:47.754Z,3.30
2023-02-24T11:56:28.217Z,3.30
2023-02-24T11:59:03.696Z,3.30
2023-02-24T12:01:52.720Z,3.30
2023-02-24T12:04:26.479Z,3.20
2023-02-24T12:07:18.246Z,3.20
2023-02-24T12:09:54.979Z,3.10
2023-02-24T12:12:38.847Z,3.10
2023-02-24T12:15:18.693Z,3.00
2023-02-24T12:18:14.947Z,3.00
2023-02-24T12:21:00.394Z,3.00
2023-02-24T12:23:40.900Z,3.00
2023-02-24T12:26:28.377Z,3.00
2023-02-24T12:29:18.548Z,3.00
2023-02-24T12:32:15.809Z,3.00
2023-02-24T12:34:58.742Z,3.00
2023-02-24T12:37:51.080Z,3.00
2023-02-24T12:40:42.062Z,3.00
2023-02-24T12:43:19.828Z,3.00
2023-02-24T12:46:05.369Z,3.00
2023-02-24T12:48:51.569Z,3.00
2023-02-24T12:51:50.975Z,3.00
2023-02-24T12:54:50.326Z,3.00
2023-02-24T12:57:41.405Z,2.90
2023-02-24T13:00:35.407Z,2.90
2023-02-24T13:03:25.617Z,2.80
2023-02-24T13:06:10.509Z,2.90
2023-02-24T13:09:18.306Z,3.00
2023-02-24T13:12:06.053Z,2.90
2023-02-24T13:14:36.917Z,3.00
2023-02-24T13:17:21.186Z,3.00
2023-02-24T13:19:52.116Z,3.10
2023-02-24T13:22:24.673Z,3.00
2023-02-24T13:24:54.857Z,3.00
2023-02-24T13:27:35.127Z,3.00
2023-02-24T13:30:11.312Z,3.00
2023-02-24T13:32:40.783Z,3.00
2023-02-24T13:35:15.155Z,3.10
2023-02-24T13:37:46.959Z,3.00
2023-02-24T13:40:23.034Z,3.00
2023-02-24T13:42:56.303Z,3.00
2023-02-24T13:45:32.273Z,2.90
2023-02-24T13:48:08.288Z,2.90
2023-02-24T13:51:03.367Z,2.90
2023-02-24T13:53:35.510Z,2.90
2023-02-24T13:56:27.935Z,2.90
2023-02-24T13:59:30.295Z,2.80
2023-02-24T14:02:19.575Z,2.80
2023-02-24T14:04:56.098Z,2.80
2023-02-24T14:07:30.113Z,2.80
2023-02-24T14:10:05.175Z,2.80
2023-02-24T14:12:37.727Z,2.90
2023-02-24T14:15:05.467Z,3.00
2023-02-24T14:17:35.877Z,3.10
2023-02-24T14:20:23.789Z,3.10
2023-02-24T14:22:55.683Z,3.20
2023-02-24T14:25:24.246Z,3.30
2023-02-24T14:27:54.389Z,3.30
2023-02-24T14:30:32.177Z,3.30
2023-02-24T14:33:00.315Z,3.30
2023-02-24T14:35:42.145Z,3.30
2023-02-24T14:38:30.999Z,3.30
2023-02-24T14:41:01.544Z,3.40
2023-02-24T14:43:29.611Z,3.40
2023-02-24T14:46:00.195Z,3.40
2023-02-24T14:48:29.780Z,3.40
2023-02-24T14:51:10.069Z,3.50
2023-02-24T14:53:48.586Z,3.50
2023-02-24T14:56:17.164Z,3.50
2023-02-24T14:59:01.300Z,3.60
2023-02-24T15:01:43.332Z,3.60
2023-02-24T15:04:25.560Z,3.70
2023-02-24T15:06:53.031Z,3.70
2023-02-24T15:09:23.772Z,3.80
2023-02-24T15:11:53.308Z,3.80
2023-02-24T15:14:31.613Z,3.80
2023-02-24T15:17:09.655Z,3.80
2023-02-24T15:19:44.017Z,3.90
2023-02-24T15:22:33.139Z,3.90
2023-02-24T15:25:28.076Z,3.90
2023-02-24T15:28:03.577Z,3.90
2023-02-24T15:30:35.374Z,3.90
2023-02-24T15:33:04.170Z,3.90
2023-02-24T15:35:33.237Z,4.00
2023-02-24T15:38:02.108Z,4.00
2023-02-24T15:40:30.115Z,4.00
2023-02-24T15:43:09.382Z,3.90
2023-02-24T15:45:38.947Z,3.80
2023-02-24T15:48:26.828Z,3.80
2023-02-24T15:50:58.377Z,3.80
2023-02-24T15:53:25.800Z,3.80
2023-02-24T15:55:53.069Z,3.70
2023-02-24T15:58:22.500Z,3.70
2023-02-24T16:00:52.292Z,3.70
2023-02-24T16:03:19.555Z,3.70
2023-02-24T16:05:46.773Z,3.80
2023-02-24T16:08:18.184Z,3.70
2023-02-24T16:10:46.187Z,3.80
2023-02-24T16:13:23.849Z,3.80
2023-02-24T16:15:54.691Z,3.70
2023-02-24T16:18:25.262Z,3.80
2023-02-24T16:20:56.520Z,3.80
2023-02-24T16:23:25.977Z,3.70
2023-02-24T16:25:57.580Z,3.70
2023-02-24T16:28:25.378Z,3.80
2023-02-24T16:30:52.835Z,3.70
2023-02-24T16:33:22.647Z,3.70
2023-02-24T16:35:53.277Z,3.70
2023-02-24T16:38:22.028Z,3.70
2023-02-24T16:40:49.836Z,3.80
2023-02-24T16:43:17.197Z,3.80
2023-02-24T16:45:45.728Z,3.80
2023-02-24T16:48:20.584Z,3.80
2023-02-24T16:50:48.198Z,3.90
2023-02-24T16:53:19.581Z,4.00
2023-02-24T16:55:47.159Z,4.00
2023-02-24T16:58:15.266Z,4.00
2023-02-24T17:00:47.544Z,4.00
2023-02-24T17:03:31.284Z,4.00
2023-02-24T17:05:58.478Z,4.10
2023-02-24T17:08:25.849Z,4.00
2023-02-24T17:10:53.368Z,4.10
2023-02-24T17:13:22.207Z,4.10
2023-02-24T17:15:56.964Z,4.10
2023-02-24T17:18:25.378Z,4.10
2023-02-24T17:20:53.466Z,4.10
2023-02-24T17:23:20.849Z,4.10
2023-02-24T17:25:59.609Z,4.10
2023-02-24T17:28:27.592Z,4.10
2023-02-24T17:30:54.922Z,4.10
2023-02-24T17:33:22.361Z,4.00
2023-02-24T17:35:49.598Z,4.10
2023-02-24T17:38:19.400Z,4.10
2023-02-24T17:40:47.244Z,4.10
2023-02-24T17:43:14.598Z,4.00
2023-02-24T17:45:44.856Z,4.10
2023-02-24T17:48:13.835Z,4.10
2023-02-24T17:50:42.215Z,4.10
2023-02-24T17:53:09.633Z,4.00
2023-02-24T17:55:36.883Z,4.00
2023-02-24T17:58:06.156Z,4.00
2023-02-24T18:00:33.666Z,3.90
2023-02-24T18:03:03.291Z,4.00
2023-02-24T18:05:30.750Z,3.90
2023-02-24T18:07:58.718Z,3.90
2023-02-24T18:10:27.246Z,3.90
2023-02-24T18:12:54.697Z,3.90
2023-02-24T18:15:22.246Z,3.80
2023-02-24T18:17:49.551Z,3.80
2023-02-24T18:20:16.762Z,3.80
2023-02-24T18:22:43.951Z,3.70
2023-02-24T18:25:11.274Z,3.70
2023-02-24T18:27:38.614Z,3.60
2023-02-24T18:30:06.992Z,3.60
2023-02-24T18:32:34.752Z,3.60
2023-02-24T18:35:02.077Z,3.60
2023-02-24T18:37:29.550Z,3.70
2023-02-24T18:39:56.899Z,3.60
2023-02-24T18:42:24.167Z,3.60
2023-02-24T18:44:51.371Z,3.70
2023-02-24T18:47:18.601Z,3.70
2023-02-24T18:49:45.829Z,3.80
2023-02-24T18:52:13.312Z,3.80
2023-02-24T18:54:40.508Z,3.80
2023-02-24T18:57:07.771Z,3.80
2023-02-24T18:59:35.519Z,3.80
2023-02-24T19:02:03.170Z,3.80
2023-02-24T19:04:30.582Z,3.90
2023-02-24T19:06:57.864Z,3.80
2023-02-24T19:09:25.059Z,3.90
2023-02-24T19:11:54.078Z,3.90
2023-02-24T19:14:22.417Z,3.90
2023-02-24T19:16:49.675Z,4.00
2023-02-24T19:19:17.375Z,4.00
2023-02-24T19:21:49.422Z,4.00
2023-02-24T19:24:17.794Z,4.00
2023-02-24T19:26:47.414Z,3.90
2023-02-24T19:29:14.837Z,4.00
2023-02-24T19:31:42.150Z,3.90
2023-02-24T19:34:13.575Z,3.90
2023-02-24T19:36:41.181Z,4.00
2023-02-24T19:39:15.784Z,4.00
2023-02-24T19:41:43.600Z,4.00
2023-02-24T19:44:11.044Z,4.00
2023-02-24T19:46:39.060Z,3.90
2023-02-24T19:49:06.634Z,3.90
2023-02-24T19:51:35.188Z,4.00
2023-02-24T19:54:05.728Z,4.00
2023-02-24T19:56:37.313Z,4.00
2023-02-24T19:59:07.248Z,4.00
2023-02-24T20:01:34.628Z,4.00
2023-02-24T20:04:03.780Z,4.00
2023-02-24T20:06:37.498Z,4.10
2023-02-24T20:09:11.508Z,4.00
2023-02-24T20:11:40.444Z,4.10
2023-02-24T20:14:09.132Z,4.10
2023-02-24T20:16:43.783Z,4.10
2023-02-24T20:19:12.892Z,4.10
2023-02-24T20:21:41.099Z,4.10
2023-02-24T20:24:13.766Z,4.20
2023-02-24T20:26:46.145Z,4.10
2023-02-24T20:29:16.202Z,4.10
2023-02-24T20:31:43.698Z,4.00
2023-02-24T20:34:11.064Z,4.10
2023-02-24T20:36:38.266Z,4.00
2023-02-24T20:39:08.450Z,4.00
2023-02-24T20:41:36.826Z,4.00
2023-02-24T20:44:04.412Z,4.00
2023-02-24T20:46:32.627Z,4.00
2023-02-24T20:49:03.038Z,4.00
2023-02-24T20:51:31.534Z,3.90
2023-02-24T20:53:59.614Z,3.90
2023-02-24T20:56:29.271Z,3.90
2023-02-24T20:59:05.696Z,3.90
2023-02-24T21:01:34.608Z,3.80
2023-02-24T21:04:02.633Z,3.90
2023-02-24T21:06:30.477Z,3.80
2023-02-24T21:08:58.336Z,3.90
2023-02-24T21:11:26.145Z,3.90
2023-02-24T21:13:53.651Z,3.90
2023-02-24T21:16:21.578Z,4.00
2023-02-24T21:18:50.472Z,4.00
2023-02-24T21:21:26.341Z,4.00
2023-02-24T21:23:53.983Z,4.10
2023-02-24T21:26:21.541Z,4.00
2023-02-24T21:28:56.888Z,4.00
2023-02-24T21:31:25.135Z,4.00
2023-02-24T21:33:53.639Z,4.00
2023-02-24T21:36:23.676Z,4.00
2023-02-24T21:38:52.896Z,4.10
2023-02-24T21:41:20.646Z,4.10
2023-02-24T21:43:52.437Z,4.20
2023-02-24T21:46:19.722Z,4.20
2023-02-24T21:48:47.069Z,4.30
2023-02-24T21:51:14.516Z,4.30
2023-02-24T21:53:43.772Z,4.30
2023-02-24T21:56:18.912Z,4.30
2023-02-24T21:59:01.137Z,4.30
2023-02-24T22:01:40.823Z,4.30
2023-02-24T22:04:10.832Z,4.20
2023-02-24T22:06:40.170Z,4.30
2023-02-24T22:09:10.000Z,4.20
2023-02-24T22:11:40.663Z,4.30
2023-02-24T22:14:10.432Z,4.20
2023-02-24T22:16:38.197Z,4.20
2023-02-24T22:19:06.355Z,4.30
2023-02-24T22:21:33.635Z,4.30
2023-02-24T22:24:03.247Z,4.30
2023-02-24T22:26:32.077Z,4.30
2023-02-24T22:29:00.585Z,4.30
2023-02-24T22:31:30.838Z,4.30
2023-02-24T22:33:58.776Z,4.30
2023-02-24T22:36:29.685Z,4.30
2023-02-24T22:38:58.512Z,4.30
2023-02-24T22:41:28.555Z,4.30
2023-02-24T22:43:55.807Z,4.30
2023-02-24T22:46:30.042Z,4.30
2023-02-24T22:48:57.625Z,4.30
2023-02-24T22:51:25.310Z,4.30
2023-02-24T22:53:53.605Z,4.30
2023-02-24T22:56:24.374Z,4.30
2023-02-24T22:58:51.771Z,4.20
2023-02-24T23:01:23.033Z,4.30
2023-02-24T23:03:50.712Z,4.20
2023-02-24T23:06:21.892Z,4.30
2023-02-24T23:08:51.994Z,4.30
2023-02-24T23:11:28.606Z,4.30
2023-02-24T23:13:57.555Z,4.30
2023-02-24T23:16:27.654Z,4.30
2023-02-24T23:19:00.967Z,4.30
2023-02-24T23:21:34.315Z,4.20
2023-02-24T23:24:02.066Z,4.10
2023-02-24T23:26:30.395Z,4.10
2023-02-24T23:28:57.809Z,4.10
2023-02-24T23:31:25.710Z,4.20
2023-02-24T23:33:54.727Z,4.20
2023-02-24T23:36:22.970Z,4.10
2023-02-24T23:38:50.745Z,4.10
2023-02-24T23:41:18.043Z,4.10
2023-02-24T23:43:45.313Z,4.20
2023-02-24T23:46:13.701Z,4.20
2023-02-24T23:48:41.312Z,4.20
2023-02-24T23:51:12.836Z,4.20
2023-02-24T23:53:42.904Z,4.20
2023-02-24T23:56:26.595Z,4.20
2023-02-24T23:58:58.911Z,4.30
